createdAt,value
2023-02-20T00:04:38.012Z,3.80
2023-02-20T00:09:39.407Z,5.60
2023-02-20T00:14:40.825Z,2.53
2023-02-20T00:19:42.238Z,5.47
2023-02-20T00:24:43.650Z,3.67
2023-02-20T00:29:45.058Z,3.80
2023-02-20T00:34:46.517Z,2.73
2023-02-20T00:39:47.941Z,4.50
2023-02-20T00:44:49.371Z,2.63
2023-02-20T00:49:50.760Z,2.23
2023-02-20T00:54:52.162Z,3.90
2023-02-20T00:59:53.568Z,2.87
2023-02-20T01:04:54.984Z,2.13
2023-02-20T01:09:56.402Z,2.00
2023-02-20T01:14:57.834Z,3.13
2023-02-20T01:19:59.221Z,2.33
2023-02-20T01:25:00.665Z,1.90
2023-02-20T01:30:02.075Z,2.63
2023-02-20T01:35:03.489Z,2.13
2023-02-20T01:40:04.942Z,2.90
2023-02-20T01:45:06.362Z,1.70
2023-02-20T01:50:07.765Z,2.10
2023-02-20T01:55:09.168Z,1.53
2023-02-20T02:00:10.576Z,2.43
2023-02-20T02:05:12.006Z,1.80
2023-02-20T02:10:13.423Z,1.70
2023-02-20T02:15:14.837Z,1.80
2023-02-20T02:20:16.246Z,2.60
2023-02-20T02:25:17.652Z,2.00
2023-02-20T02:30:19.107Z,2.23
2023-02-20T02:35:20.557Z,1.83
2023-02-20T02:40:22.031Z,2.10
2023-02-20T02:45:23.554Z,1.40
2023-02-20T02:50:25.077Z,1.50
2023-02-20T02:55:26.504Z,1.63
2023-02-20T03:00:27.922Z,2.20
2023-02-20T03:05:29.353Z,1.67
2023-02-20T03:10:30.846Z,1.97
2023-02-20T03:15:32.253Z,1.77
2023-02-20T03:20:33.675Z,2.93
2023-02-20T03:25:35.552Z,2.03
2023-02-20T03:30:36.969Z,1.43
2023-02-20T03:35:38.433Z,1.50
2023-02-20T03:40:39.842Z,1.80
2023-02-20T03:45:41.642Z,1.50
2023-02-20T03:50:43.070Z,1.83
2023-02-20T03:55:44.871Z,1.43
2023-02-20T04:00:46.274Z,2.30
2023-02-20T04:05:47.677Z,1.73
2023-02-20T04:10:49.096Z,1.60
2023-02-20T04:15:50.503Z,1.80
2023-02-20T04:20:51.935Z,1.40
2023-02-20T04:25:53.365Z,1.70
2023-02-20T04:30:54.795Z,1.30
2023-02-20T04:35:56.210Z,1.67
2023-02-20T04:40:57.621Z,1.97
2023-02-20T04:45:59.071Z,1.60
2023-02-20T04:51:02.853Z,1.53
2023-02-20T04:56:04.435Z,1.30
2023-02-20T05:01:06.001Z,1.67
2023-02-20T05:06:07.429Z,1.70
2023-02-20T05:11:08.855Z,1.80
2023-02-20T05:16:10.526Z,2.40
2023-02-20T05:21:12.115Z,1.63
2023-02-20T05:26:13.799Z,1.47
2023-02-20T05:31:17.594Z,2.03
2023-02-20T05:36:19.445Z,1.53
2023-02-20T05:41:21.512Z,1.60
2023-02-20T05:46:22.901Z,1.57
2023-02-20T05:51:24.356Z,1.50
2023-02-20T05:56:25.768Z,1.40
2023-02-20T06:01:27.326Z,1.37
2023-02-20T06:06:28.847Z,2.03
2023-02-20T06:11:30.261Z,1.70
2023-02-20T06:16:31.923Z,1.40
2023-02-20T06:21:33.416Z,1.77
2023-02-20T06:26:34.817Z,1.40
2023-02-20T06:31:36.307Z,1.50
2023-02-20T06:36:38.827Z,1.40
2023-02-20T06:41:40.241Z,1.67
2023-02-20T06:46:41.691Z,1.70
2023-02-20T06:51:43.156Z,1.83
2023-02-20T06:56:47.416Z,1.60
2023-02-20T07:01:48.897Z,1.47
2023-02-20T07:06:50.353Z,1.50
2023-02-20T07:11:51.780Z,1.30
2023-02-20T07:16:53.727Z,1.60
2023-02-20T07:21:55.134Z,1.30
2023-02-20T07:31:57.078Z,1.20
2023-02-20T07:36:58.578Z,1.50
2023-02-20T07:41:59.994Z,1.40
2023-02-20T07:47:01.425Z,1.60
2023-02-20T07:52:02.997Z,1.70
2023-02-20T07:57:04.437Z,1.60
2023-02-20T08:02:05.856Z,1.47
2023-02-20T08:07:07.247Z,1.30
2023-02-20T08:12:08.658Z,1.43
2023-02-20T08:17:10.053Z,1.43
2023-02-20T08:22:11.694Z,1.50
2023-02-20T08:27:13.195Z,1.50
2023-02-20T08:32:15.478Z,1.20
2023-02-20T08:37:16.951Z,1.50
2023-02-20T08:42:18.370Z,1.53
2023-02-20T08:47:19.795Z,1.10
2023-02-20T08:52:21.206Z,1.40
2023-02-20T08:57:22.616Z,1.50
2023-02-20T09:02:24.062Z,1.53
2023-02-20T09:07:25.504Z,1.40
2023-02-20T09:12:26.909Z,1.77
2023-02-20T09:17:28.317Z,1.30
2023-02-20T09:22:29.725Z,4.03
2023-02-20T09:27:31.121Z,1.37
2023-02-20T09:32:32.655Z,1.30
2023-02-20T09:37:34.110Z,1.60
2023-02-20T09:42:35.514Z,1.40
2023-02-20T09:47:36.953Z,1.70
2023-02-20T09:52:38.413Z,1.60
2023-02-20T09:57:39.962Z,1.43
2023-02-20T10:02:41.531Z,1.60
2023-02-20T10:07:43.058Z,1.40
2023-02-20T10:12:44.564Z,1.40
2023-02-20T10:17:45.991Z,1.30
2023-02-20T10:22:47.403Z,1.53
2023-02-20T10:27:48.828Z,1.33
2023-02-20T10:32:50.256Z,1.53
2023-02-20T10:37:51.670Z,1.37
2023-02-20T10:42:53.077Z,1.67
2023-02-20T10:47:54.480Z,1.67
2023-02-20T10:52:55.889Z,1.63
2023-02-20T10:57:57.312Z,1.53
2023-02-20T11:02:58.712Z,1.60
2023-02-20T11:08:00.123Z,1.57
2023-02-20T11:13:01.587Z,1.73
2023-02-20T11:18:03.017Z,1.70
2023-02-20T11:23:04.442Z,1.93
2023-02-20T11:28:05.849Z,1.63
2023-02-20T11:33:07.283Z,1.93
2023-02-20T11:38:08.709Z,2.17
2023-02-20T11:43:10.108Z,2.10
2023-02-20T11:48:11.535Z,1.70
2023-02-20T11:53:12.949Z,1.70
2023-02-20T11:58:14.368Z,1.90
2023-02-20T12:03:15.820Z,2.07
2023-02-20T12:08:17.218Z,1.90
2023-02-20T12:13:18.625Z,1.93
2023-02-20T12:18:20.030Z,2.03
2023-02-20T12:23:21.438Z,2.43
2023-02-20T12:28:22.847Z,2.00
2023-02-20T12:33:24.420Z,1.70
2023-02-20T12:38:25.832Z,1.60
2023-02-20T12:43:27.282Z,1.70
2023-02-20T12:48:28.773Z,2.47
2023-02-20T12:53:30.182Z,2.17
2023-02-20T12:58:31.588Z,2.10
2023-02-20T13:03:33.013Z,2.30
2023-02-20T13:08:34.444Z,2.40
2023-02-20T13:13:35.857Z,1.93
2023-02-20T13:18:37.270Z,2.67
2023-02-20T13:23:40.440Z,1.67
2023-02-20T13:28:43.213Z,2.17
2023-02-20T13:33:44.797Z,2.70
2023-02-20T13:38:46.234Z,1.90
2023-02-20T13:43:47.680Z,1.70
2023-02-20T13:48:49.102Z,2.17
2023-02-20T13:53:50.507Z,3.40
2023-02-20T13:58:51.931Z,3.17
2023-02-20T14:03:53.398Z,1.70
2023-02-20T14:08:54.810Z,2.17
2023-02-20T14:13:56.218Z,2.20
2023-02-20T14:18:57.630Z,2.47
2023-02-20T14:23:59.067Z,2.30
2023-02-20T14:29:00.479Z,1.93
2023-02-20T14:34:01.894Z,1.80
2023-02-20T14:39:03.340Z,2.30
2023-02-20T14:44:04.762Z,1.57
2023-02-20T14:49:06.177Z,2.23
2023-02-20T14:54:07.590Z,2.60
2023-02-20T14:59:08.993Z,3.90
2023-02-20T15:04:10.425Z,2.53
2023-02-20T15:09:21.929Z,3.40
2023-02-20T15:14:23.868Z,9.87
2023-02-20T15:19:25.451Z,11.10
2023-02-20T15:24:26.880Z,7.73
2023-02-20T15:29:28.319Z,7.07
2023-02-20T15:34:29.742Z,6.50
2023-02-20T15:39:31.204Z,6.00
2023-02-20T15:44:32.605Z,5.50
2023-02-20T15:49:34.032Z,5.20
2023-02-20T15:54:35.466Z,5.13
2023-02-20T15:59:36.913Z,6.50
2023-02-20T16:04:38.324Z,5.77
2023-02-20T16:09:39.724Z,4.10
2023-02-20T16:14:41.157Z,4.43
2023-02-20T16:19:43.227Z,4.97
2023-02-20T16:24:44.763Z,4.13
2023-02-20T16:29:46.166Z,4.00
2023-02-20T16:34:47.573Z,4.37
2023-02-20T16:39:48.988Z,3.77
2023-02-20T16:44:50.410Z,4.37
2023-02-20T16:49:51.896Z,8.13
2023-02-20T16:54:53.376Z,8.67
2023-02-20T16:59:55.790Z,15.27
2023-02-20T17:04:57.502Z,16.33
2023-02-20T17:09:59.026Z,14.23
2023-02-20T17:15:00.478Z,11.50
2023-02-20T17:20:01.898Z,8.33
2023-02-20T17:25:03.314Z,15.37
2023-02-20T17:30:04.842Z,13.87
2023-02-20T17:35:06.403Z,9.57
2023-02-20T17:40:07.828Z,11.50
2023-02-20T17:45:09.239Z,13.43
2023-02-20T17:50:10.684Z,10.37
2023-02-20T17:55:12.084Z,10.00
2023-02-20T18:00:13.490Z,8.80
2023-02-20T18:05:14.971Z,5.83
2023-02-20T18:10:16.390Z,10.50
2023-02-20T18:15:17.859Z,5.73
2023-02-20T18:20:19.333Z,9.13
2023-02-20T18:25:23.950Z,4.87
2023-02-20T18:30:32.762Z,5.93
2023-02-20T18:35:34.213Z,9.10
2023-02-20T18:40:35.662Z,7.17
2023-02-20T18:45:37.136Z,10.37
2023-02-20T18:50:38.608Z,4.63
2023-02-20T18:55:40.028Z,7.33
2023-02-20T19:00:41.507Z,5.33
2023-02-20T19:05:42.940Z,5.43
2023-02-20T19:10:44.389Z,4.87
2023-02-20T19:15:45.810Z,6.47
2023-02-20T19:20:47.397Z,5.30
2023-02-20T19:25:48.813Z,3.73
2023-02-20T19:30:50.242Z,3.10
2023-02-20T19:35:51.836Z,5.10
2023-02-20T19:40:53.250Z,4.73
2023-02-20T19:45:54.731Z,3.80
2023-02-20T19:50:56.380Z,4.77
2023-02-20T19:55:57.812Z,4.30
2023-02-20T20:00:59.267Z,5.13
2023-02-20T20:06:00.779Z,4.03
2023-02-20T20:11:02.320Z,4.73
2023-02-20T20:16:03.748Z,3.37
2023-02-20T20:21:05.272Z,7.43
2023-02-20T20:26:06.709Z,6.20
2023-02-20T20:31:08.157Z,4.60
2023-02-20T20:36:09.613Z,3.90
2023-02-20T20:41:11.021Z,3.63
2023-02-20T20:46:12.500Z,4.30
2023-02-20T20:51:14.157Z,3.23
2023-02-20T20:56:15.762Z,3.30
2023-02-20T21:01:17.315Z,5.63
2023-02-20T21:06:18.788Z,3.00
2023-02-20T21:11:20.214Z,3.17
2023-02-20T21:16:21.655Z,3.00
2023-02-20T21:21:23.059Z,3.20
2023-02-20T21:26:24.473Z,3.20
2023-02-20T21:31:25.917Z,5.20
2023-02-20T21:36:27.466Z,4.97
2023-02-20T21:41:28.881Z,2.90
2023-02-20T21:46:30.345Z,3.03
2023-02-20T21:51:31.832Z,2.90
2023-02-20T21:56:33.269Z,3.10
2023-02-20T22:01:34.705Z,3.00
2023-02-20T22:06:36.150Z,3.90
2023-02-20T22:11:37.561Z,6.00
2023-02-20T22:16:38.962Z,3.60
2023-02-20T22:21:40.367Z,4.40
2023-02-20T22:26:41.784Z,3.60
2023-02-20T22:31:43.333Z,5.10
2023-02-20T22:36:44.839Z,3.87
2023-02-20T22:41:46.284Z,3.20
2023-02-20T22:46:47.758Z,3.27
2023-02-20T22:51:49.208Z,2.70
2023-02-20T22:56:50.639Z,3.10
2023-02-20T23:01:52.123Z,2.83
2023-02-20T23:06:53.519Z,4.00
2023-02-20T23:11:54.942Z,3.10
2023-02-20T23:16:56.344Z,5.80
2023-02-20T23:21:57.753Z,3.80
2023-02-20T23:26:59.150Z,4.10
2023-02-20T23:32:00.600Z,2.90
2023-02-20T23:37:02.093Z,2.90
2023-02-20T23:42:03.494Z,2.60
2023-02-20T23:47:04.904Z,3.60
2023-02-20T23:52:15.824Z,2.90
2023-02-20T23:57:17.689Z,3.10
